createdAt,value
2022-09-17T00:01:34.605Z,25.10
2022-09-17T00:04:02.992Z,25.10
2022-09-17T00:06:32.839Z,25.10
2022-09-17T00:09:01.653Z,25.00
2022-09-17T00:11:32.802Z,25.00
2022-09-17T00:14:02.559Z,25.10
2022-09-17T00:16:40.399Z,25.10
2022-09-17T00:19:13.467Z,25.10
2022-09-17T00:21:42.702Z,25.10
2022-09-17T00:24:15.285Z,25.10
2022-09-17T00:26:43.745Z,25.00
2022-09-17T00:29:12.281Z,25.00
2022-09-17T00:31:41.245Z,24.90
2022-09-17T00:34:09.676Z,25.00
2022-09-17T00:36:39.550Z,25.00
2022-09-17T00:39:09.657Z,24.90
2022-09-17T00:41:38.785Z,24.90
2022-09-17T00:44:43.742Z,24.90
2022-09-17T00:47:35.659Z,24.90
2022-09-17T00:50:15.220Z,25.00
2022-09-17T00:52:48.027Z,24.90
2022-09-17T00:55:18.999Z,25.00
2022-09-17T00:57:48.669Z,24.90
2022-09-17T01:00:18.092Z,24.90
2022-09-17T01:02:47.038Z,24.90
2022-09-17T01:05:16.878Z,24.90
2022-09-17T01:07:44.965Z,24.90
2022-09-17T01:10:37.965Z,24.90
2022-09-17T01:13:20.034Z,24.90
2022-09-17T01:15:52.119Z,24.90
2022-09-17T01:18:32.879Z,24.80
2022-09-17T01:21:25.232Z,24.80
2022-09-17T01:24:20.708Z,24.80
2022-09-17T01:26:51.640Z,24.80
2022-09-17T01:29:37.997Z,24.90
2022-09-17T01:32:15.183Z,24.80
2022-09-17T01:35:15.749Z,24.80
2022-09-17T01:37:57.363Z,24.80
2022-09-17T01:40:55.456Z,24.80
2022-09-17T01:43:34.593Z,24.90
2022-09-17T01:46:14.839Z,24.90
2022-09-17T01:48:47.407Z,24.90
2022-09-17T01:51:21.146Z,24.90
2022-09-17T01:54:15.431Z,24.90
2022-09-17T01:56:51.477Z,24.90
2022-09-17T01:59:32.385Z,24.90
2022-09-17T02:02:11.926Z,24.90
2022-09-17T02:04:46.331Z,25.00
2022-09-17T02:07:20.225Z,25.00
2022-09-17T02:09:55.137Z,24.90
2022-09-17T02:12:31.114Z,25.00
2022-09-17T02:15:02.804Z,24.90
2022-09-17T02:17:44.159Z,25.00
2022-09-17T02:20:13.201Z,25.00
2022-09-17T02:22:48.475Z,25.00
2022-09-17T02:25:39.698Z,25.00
2022-09-17T02:28:44.415Z,25.00
2022-09-17T02:31:12.940Z,25.00
2022-09-17T02:33:45.496Z,25.00
2022-09-17T02:36:14.181Z,24.90
2022-09-17T02:38:46.449Z,24.90
2022-09-17T02:41:25.016Z,25.00
2022-09-17T02:44:01.377Z,25.00
2022-09-17T02:46:46.286Z,25.10
2022-09-17T02:49:42.003Z,25.10
2022-09-17T02:52:34.318Z,25.20
2022-09-17T02:55:19.104Z,25.30
2022-09-17T02:58:11.637Z,25.30
2022-09-17T03:00:40.172Z,25.30
2022-09-17T03:03:39.746Z,25.40
2022-09-17T03:06:08.016Z,25.40
2022-09-17T03:08:42.392Z,25.30
2022-09-17T03:11:12.282Z,25.40
2022-09-17T03:13:40.806Z,25.40
2022-09-17T03:16:09.250Z,25.40
2022-09-17T03:18:37.508Z,25.40
2022-09-17T03:21:05.520Z,25.40
2022-09-17T03:23:33.650Z,25.40
2022-09-17T03:26:02.395Z,25.40
2022-09-17T03:28:30.508Z,25.40
2022-09-17T03:30:58.730Z,25.40
2022-09-17T03:33:27.026Z,25.40
2022-09-17T03:35:55.130Z,25.40
2022-09-17T03:38:23.381Z,25.50
2022-09-17T03:41:03.444Z,25.50
2022-09-17T03:43:32.662Z,25.40
2022-09-17T03:46:00.770Z,25.40
2022-09-17T03:48:29.076Z,25.50
2022-09-17T03:50:59.900Z,25.40
2022-09-17T03:53:32.378Z,25.50
2022-09-17T03:56:01.953Z,25.40
2022-09-17T03:58:31.733Z,25.50
2022-09-17T04:01:00.795Z,25.40
2022-09-17T04:03:29.534Z,25.50
2022-09-17T04:05:57.858Z,25.40
2022-09-17T04:08:25.953Z,25.50
2022-09-17T04:10:54.436Z,25.50
2022-09-17T04:13:22.811Z,25.40
2022-09-17T04:15:51.246Z,25.50
2022-09-17T04:18:19.309Z,25.40
2022-09-17T04:20:47.664Z,25.50
2022-09-17T04:23:15.712Z,25.40
2022-09-17T04:25:43.827Z,25.40
2022-09-17T04:28:12.525Z,25.40
2022-09-17T04:30:40.763Z,25.40
2022-09-17T04:33:09.049Z,25.40
2022-09-17T04:35:37.530Z,25.40
2022-09-17T04:38:05.893Z,25.40
2022-09-17T04:40:34.100Z,25.40
2022-09-17T04:43:02.435Z,25.30
2022-09-17T04:45:31.326Z,25.30
2022-09-17T04:47:59.491Z,25.20
2022-09-17T04:50:27.790Z,25.30
2022-09-17T04:52:55.936Z,25.20
2022-09-17T04:55:24.333Z,25.20
2022-09-17T04:57:54.083Z,25.20
2022-09-17T05:00:23.291Z,25.20
2022-09-17T05:02:53.713Z,25.20
2022-09-17T05:05:22.474Z,25.20
2022-09-17T05:07:50.591Z,25.20
2022-09-17T05:10:20.661Z,25.20
2022-09-17T05:12:53.785Z,25.30
2022-09-17T05:15:23.026Z,25.30
2022-09-17T05:17:51.286Z,25.30
2022-09-17T05:20:19.501Z,25.30
2022-09-17T05:22:50.048Z,25.30
2022-09-17T05:25:20.564Z,25.30
2022-09-17T05:27:48.669Z,25.30
2022-09-17T05:30:17.032Z,25.30
2022-09-17T05:32:45.156Z,25.30
2022-09-17T05:35:13.463Z,25.30
2022-09-17T05:37:41.682Z,25.30
2022-09-17T05:40:10.396Z,25.30
2022-09-17T05:42:38.737Z,25.30
2022-09-17T05:45:07.386Z,25.30
2022-09-17T05:47:35.598Z,25.30
2022-09-17T05:50:03.710Z,25.30
2022-09-17T05:52:31.956Z,25.30
2022-09-17T05:55:00.140Z,25.30
2022-09-17T05:57:30.314Z,25.30
2022-09-17T05:59:58.562Z,25.30
2022-09-17T06:02:26.631Z,25.30
2022-09-17T06:04:54.776Z,25.30
2022-09-17T06:07:23.018Z,25.30
2022-09-17T06:09:51.277Z,25.30
2022-09-17T06:12:19.388Z,25.30
2022-09-17T06:14:47.546Z,25.30
2022-09-17T06:17:20.219Z,25.30
2022-09-17T06:19:50.398Z,25.30
2022-09-17T06:22:20.203Z,25.30
2022-09-17T06:24:48.380Z,25.30
2022-09-17T06:27:16.493Z,25.30
2022-09-17T06:29:44.697Z,25.30
2022-09-17T06:32:12.822Z,25.30
2022-09-17T06:34:40.929Z,25.40
2022-09-17T06:37:09.178Z,25.30
2022-09-17T06:39:37.332Z,25.30
2022-09-17T06:42:05.706Z,25.30
2022-09-17T06:44:33.898Z,25.30
2022-09-17T06:47:02.117Z,25.40
2022-09-17T06:49:30.312Z,25.40
2022-09-17T06:51:58.489Z,25.40
2022-09-17T06:54:26.773Z,25.40
2022-09-17T06:56:54.868Z,25.40
2022-09-17T06:59:24.499Z,25.40
2022-09-17T07:01:52.876Z,25.40
2022-09-17T07:04:21.061Z,25.40
2022-09-17T07:06:49.328Z,25.40
2022-09-17T07:09:17.498Z,25.30
2022-09-17T07:11:46.465Z,25.30
2022-09-17T07:14:14.806Z,25.30
2022-09-17T07:16:42.934Z,25.30
2022-09-17T07:19:14.796Z,25.30
2022-09-17T07:21:43.396Z,25.40
2022-09-17T07:24:11.451Z,25.40
2022-09-17T07:26:39.583Z,25.30
2022-09-17T07:29:07.821Z,25.40
2022-09-17T07:31:36.084Z,25.30
2022-09-17T07:34:04.377Z,25.40
2022-09-17T07:36:32.402Z,25.40
2022-09-17T07:39:00.602Z,25.40
2022-09-17T07:41:28.638Z,25.40
2022-09-17T07:43:56.799Z,25.40
2022-09-17T07:46:25.030Z,25.40
2022-09-17T07:48:53.133Z,25.40
2022-09-17T07:51:23.966Z,25.50
2022-09-17T07:53:53.797Z,25.50
2022-09-17T07:56:22.805Z,25.50
2022-09-17T07:58:51.276Z,25.60
2022-09-17T08:01:19.939Z,25.60
2022-09-17T08:03:55.406Z,25.60
2022-09-17T08:06:27.825Z,25.60
2022-09-17T08:09:00.276Z,25.60
2022-09-17T08:11:55.748Z,25.60
2022-09-17T08:14:18.589Z,25.70
2022-09-17T08:16:46.761Z,25.70
2022-09-17T08:19:14.917Z,25.70
2022-09-17T08:21:43.070Z,25.70
2022-09-17T08:24:12.723Z,25.70
2022-09-17T08:26:40.843Z,25.70
2022-09-17T08:29:09.042Z,25.70
2022-09-17T08:31:37.436Z,25.70
2022-09-17T08:34:09.931Z,25.70
2022-09-17T08:36:38.169Z,25.70
2022-09-17T08:39:06.421Z,25.70
2022-09-17T08:41:47.122Z,25.70
2022-09-17T08:44:32.486Z,25.70
2022-09-17T08:47:04.624Z,25.70
2022-09-17T08:49:32.662Z,25.70
2022-09-17T08:52:37.486Z,25.70
2022-09-17T08:55:14.875Z,25.70
2022-09-17T08:57:51.942Z,25.80
2022-09-17T09:00:22.143Z,25.80
2022-09-17T09:03:08.743Z,25.80
2022-09-17T09:05:49.216Z,25.80
2022-09-17T09:08:35.461Z,25.80
2022-09-17T09:11:06.405Z,25.90
2022-09-17T09:13:47.548Z,25.90
2022-09-17T09:16:20.441Z,25.90
2022-09-17T09:18:55.089Z,26.00
2022-09-17T09:21:46.046Z,26.00
2022-09-17T09:24:17.054Z,26.10
2022-09-17T09:27:15.973Z,26.10
2022-09-17T09:30:05.438Z,26.20
2022-09-17T09:32:48.637Z,26.20
2022-09-17T09:35:31.794Z,26.20
2022-09-17T09:38:21.316Z,26.10
2022-09-17T09:40:54.433Z,26.10
2022-09-17T09:44:02.634Z,26.10
2022-09-17T09:47:02.840Z,26.20
2022-09-17T09:49:56.672Z,26.20
2022-09-17T09:53:03.343Z,26.10
2022-09-17T09:56:06.766Z,26.30
2022-09-17T09:58:41.071Z,26.30
2022-09-17T10:01:20.086Z,26.30
2022-09-17T10:04:16.461Z,26.40
2022-09-17T10:06:45.545Z,26.40
2022-09-17T10:09:15.398Z,26.50
2022-09-17T10:11:44.503Z,26.70
2022-09-17T10:14:27.920Z,26.70
2022-09-17T10:17:21.068Z,26.90
2022-09-17T10:20:22.758Z,27.10
2022-09-17T10:22:51.710Z,27.20
2022-09-17T10:25:33.374Z,27.30
2022-09-17T10:28:06.294Z,27.40
2022-09-17T10:30:36.345Z,27.40
2022-09-17T10:33:18.589Z,27.40
2022-09-17T10:35:57.402Z,27.50
2022-09-17T10:38:46.653Z,27.50
2022-09-17T10:41:18.823Z,27.60
2022-09-17T10:43:46.824Z,27.60
2022-09-17T10:46:34.149Z,27.60
2022-09-17T10:49:41.608Z,27.60
2022-09-17T10:52:31.559Z,27.60
2022-09-17T10:55:50.176Z,27.50
2022-09-17T10:58:25.759Z,27.40
2022-09-17T11:01:18.607Z,27.30
2022-09-17T11:04:21.264Z,27.40
2022-09-17T11:07:09.214Z,27.40
2022-09-17T11:10:07.875Z,27.20
2022-09-17T11:12:45.472Z,27.20
2022-09-17T11:15:29.731Z,27.20
2022-09-17T11:18:16.712Z,27.20
2022-09-17T11:21:03.276Z,27.20
2022-09-17T11:24:05.458Z,27.20
2022-09-17T11:26:58.114Z,27.30
2022-09-17T11:29:47.669Z,27.50
2022-09-17T11:32:44.605Z,27.50
2022-09-17T11:35:27.321Z,27.60
2022-09-17T11:38:04.742Z,27.60
2022-09-17T11:41:02.073Z,27.50
2022-09-17T11:43:48.032Z,27.40
2022-09-17T11:46:23.400Z,27.30
2022-09-17T11:49:19.472Z,27.20
2022-09-17T11:52:00.296Z,27.20
2022-09-17T11:54:54.948Z,27.10
2022-09-17T11:57:36.811Z,27.20
2022-09-17T12:00:08.106Z,27.30
2022-09-17T12:02:53.230Z,27.30
2022-09-17T12:05:30.713Z,27.40
2022-09-17T12:08:17.383Z,27.50
2022-09-17T12:11:13.393Z,27.50
2022-09-17T12:13:55.947Z,27.60
2022-09-17T12:16:43.984Z,27.50
2022-09-17T12:19:23.291Z,27.60
2022-09-17T12:22:05.939Z,27.50
2022-09-17T12:24:34.226Z,27.60
2022-09-17T12:27:26.739Z,27.60
2022-09-17T12:30:04.064Z,27.60
2022-09-17T12:32:51.042Z,27.60
2022-09-17T12:36:03.533Z,27.60
2022-09-17T12:38:38.239Z,27.60
2022-09-17T12:41:46.354Z,27.40
2022-09-17T12:44:30.714Z,27.50
2022-09-17T12:47:22.973Z,27.50
2022-09-17T12:50:00.437Z,27.40
2022-09-17T12:52:46.694Z,27.40
2022-09-17T12:55:36.363Z,27.40
2022-09-17T12:58:28.689Z,27.30
2022-09-17T13:01:07.708Z,27.30
2022-09-17T13:03:35.970Z,27.40
2022-09-17T13:06:32.464Z,27.50
2022-09-17T13:09:28.496Z,27.50
2022-09-17T13:12:06.306Z,27.50
2022-09-17T13:14:52.802Z,27.60
2022-09-17T13:17:29.556Z,27.60
2022-09-17T13:20:03.183Z,27.50
2022-09-17T13:22:33.270Z,27.40
2022-09-17T13:25:08.924Z,27.30
2022-09-17T13:27:38.589Z,27.30
2022-09-17T13:30:09.035Z,27.20
2022-09-17T13:32:37.181Z,27.20
2022-09-17T13:35:14.373Z,27.20
2022-09-17T13:37:54.557Z,27.20
2022-09-17T13:40:32.868Z,27.20
2022-09-17T13:43:18.392Z,27.20
2022-09-17T13:46:17.341Z,27.20
2022-09-17T13:48:49.031Z,27.10
2022-09-17T13:51:44.828Z,27.20
2022-09-17T13:54:14.337Z,27.10
2022-09-17T13:56:46.339Z,27.10
2022-09-17T13:59:22.377Z,27.10
2022-09-17T14:02:00.611Z,27.10
2022-09-17T14:04:42.236Z,27.10
2022-09-17T14:07:22.696Z,27.00
2022-09-17T14:09:57.757Z,27.00
2022-09-17T14:12:41.420Z,27.00
2022-09-17T14:15:42.533Z,27.00
2022-09-17T14:18:35.344Z,27.00
2022-09-17T14:21:09.774Z,27.00
2022-09-17T14:23:50.517Z,27.10
2022-09-17T14:26:40.967Z,27.00
2022-09-17T14:29:39.440Z,26.90
2022-09-17T14:32:13.655Z,26.90
2022-09-17T14:34:42.552Z,26.80
2022-09-17T14:37:19.627Z,26.80
2022-09-17T14:39:49.636Z,26.80
2022-09-17T14:42:24.190Z,26.90
2022-09-17T14:45:01.020Z,26.90
2022-09-17T14:47:29.324Z,26.90
2022-09-17T14:50:24.867Z,27.00
2022-09-17T14:52:54.821Z,27.10
2022-09-17T14:55:28.867Z,27.00
2022-09-17T14:57:59.605Z,27.10
2022-09-17T15:00:38.945Z,27.10
2022-09-17T15:03:07.331Z,26.90
2022-09-17T15:05:38.948Z,27.00
2022-09-17T15:08:15.080Z,27.10
2022-09-17T15:11:04.169Z,27.10
2022-09-17T15:13:37.279Z,27.20
2022-09-17T15:16:14.367Z,27.10
2022-09-17T15:18:48.821Z,27.20
2022-09-17T15:21:24.487Z,27.40
2022-09-17T15:23:58.988Z,27.50
2022-09-17T15:26:32.861Z,27.50
2022-09-17T15:29:02.613Z,27.60
2022-09-17T15:31:30.864Z,27.70
2022-09-17T15:34:02.367Z,28.10
2022-09-17T15:36:30.824Z,28.30
2022-09-17T15:38:59.624Z,28.50
2022-09-17T15:41:35.530Z,28.40
2022-09-17T15:44:33.496Z,28.30
2022-09-17T15:47:55.677Z,28.20
2022-09-17T15:50:29.200Z,28.10
2022-09-17T15:53:14.406Z,27.90
2022-09-17T15:56:01.775Z,27.80
2022-09-17T15:58:32.860Z,27.70
2022-09-17T16:01:16.376Z,27.70
2022-09-17T16:03:44.806Z,27.60
2022-09-17T16:06:22.095Z,27.50
2022-09-17T16:08:51.655Z,27.50
2022-09-17T16:11:24.925Z,27.30
2022-09-17T16:13:56.345Z,27.50
2022-09-17T16:16:33.484Z,27.70
2022-09-17T16:19:02.215Z,27.80
2022-09-17T16:21:30.522Z,28.00
2022-09-17T16:23:59.081Z,28.00
2022-09-17T16:26:31.394Z,27.90
2022-09-17T16:29:14.629Z,27.90
2022-09-17T16:31:42.995Z,27.80
2022-09-17T16:34:11.302Z,27.80
2022-09-17T16:36:39.585Z,27.90
2022-09-17T16:39:07.878Z,27.90
2022-09-17T16:41:36.211Z,28.20
2022-09-17T16:44:04.350Z,28.80
2022-09-17T16:46:32.444Z,30.00
2022-09-17T16:49:00.834Z,30.80
2022-09-17T16:51:29.177Z,31.50
2022-09-17T16:53:57.456Z,31.60
2022-09-17T16:56:25.830Z,30.60
2022-09-17T16:58:57.244Z,30.20
2022-09-17T17:01:25.526Z,29.70
2022-09-17T17:03:53.962Z,29.00
2022-09-17T17:06:23.221Z,28.50
2022-09-17T17:08:51.491Z,28.20
2022-09-17T17:11:19.605Z,28.00
2022-09-17T17:13:48.132Z,27.70
2022-09-17T17:16:16.616Z,27.50
2022-09-17T17:18:45.169Z,27.30
2022-09-17T17:21:15.544Z,27.20
2022-09-17T17:23:43.761Z,27.20
2022-09-17T17:26:11.972Z,27.10
2022-09-17T17:28:40.142Z,27.10
2022-09-17T17:31:08.325Z,27.00
2022-09-17T17:33:36.509Z,27.00
2022-09-17T17:36:08.222Z,26.80
2022-09-17T17:38:36.866Z,26.90
2022-09-17T17:41:15.592Z,26.80
2022-09-17T17:43:43.899Z,26.80
2022-09-17T17:46:13.053Z,26.70
2022-09-17T17:48:41.378Z,26.70
2022-09-17T17:51:10.760Z,26.70
2022-09-17T17:53:42.417Z,26.70
2022-09-17T17:56:12.316Z,26.70
2022-09-17T17:58:41.614Z,26.70
2022-09-17T18:01:24.786Z,26.70
2022-09-17T18:03:57.630Z,26.70
2022-09-17T18:06:26.508Z,26.70
2022-09-17T18:08:54.758Z,26.70
2022-09-17T18:11:24.104Z,26.70
2022-09-17T18:13:56.744Z,26.60
2022-09-17T18:16:25.305Z,26.50
2022-09-17T18:18:55.650Z,26.50
2022-09-17T18:21:24.640Z,26.50
2022-09-17T18:23:53.628Z,26.50
2022-09-17T18:26:28.564Z,26.40
2022-09-17T18:28:56.998Z,26.30
2022-09-17T18:31:30.304Z,26.30
2022-09-17T18:34:17.870Z,26.30
2022-09-17T18:36:50.856Z,26.20
2022-09-17T18:42:08.024Z,26.10
2022-09-17T18:44:36.120Z,26.10
2022-09-17T18:47:04.600Z,26.10
2022-09-17T18:49:32.783Z,26.10
2022-09-17T18:52:00.973Z,26.10
2022-09-17T18:54:29.220Z,26.10
2022-09-17T18:56:57.323Z,26.10
2022-09-17T18:59:25.500Z,26.10
2022-09-17T19:01:53.843Z,26.10
2022-09-17T19:04:22.129Z,26.10
2022-09-17T19:06:50.557Z,26.10
2022-09-17T19:09:19.156Z,26.10
2022-09-17T19:11:49.466Z,26.10
2022-09-17T19:14:18.010Z,26.10
2022-09-17T19:16:46.369Z,26.10
2022-09-17T19:19:14.850Z,26.10
2022-09-17T19:21:43.446Z,26.10
2022-09-17T19:24:11.849Z,26.10
2022-09-17T19:26:40.228Z,26.10
2022-09-17T19:29:08.670Z,26.10
2022-09-17T19:31:37.081Z,26.10
2022-09-17T19:34:05.594Z,26.10
2022-09-17T19:36:34.334Z,26.10
2022-09-17T19:39:02.613Z,26.10
2022-09-17T19:41:31.173Z,26.10
2022-09-17T19:43:59.557Z,26.10
2022-09-17T19:46:28.219Z,26.10
2022-09-17T19:48:58.291Z,26.10
2022-09-17T19:51:28.709Z,26.10
2022-09-17T19:53:57.342Z,25.80
2022-09-17T19:56:27.932Z,25.70
2022-09-17T19:58:56.360Z,25.60
2022-09-17T20:01:25.057Z,25.50
2022-09-17T20:03:53.633Z,25.50
2022-09-17T20:06:22.302Z,25.40
2022-09-17T20:08:52.607Z,25.40
2022-09-17T20:11:23.110Z,25.30
2022-09-17T20:13:56.781Z,25.30
2022-09-17T20:16:25.366Z,25.30
2022-09-17T20:18:54.273Z,25.20
2022-09-17T20:22:18.597Z,25.20
2022-09-17T20:24:50.916Z,25.10
2022-09-17T20:27:19.817Z,25.00
2022-09-17T20:29:48.286Z,24.90
2022-09-17T20:32:16.689Z,24.90
2022-09-17T20:34:45.207Z,24.90
2022-09-17T20:37:14.044Z,24.90
2022-09-17T20:39:42.681Z,24.90
2022-09-17T20:42:11.227Z,24.80
2022-09-17T20:44:39.739Z,24.90
2022-09-17T20:47:08.266Z,24.90
2022-09-17T20:49:36.570Z,24.80
2022-09-17T20:52:05.168Z,24.80
2022-09-17T20:54:33.553Z,24.90
2022-09-17T20:57:02.010Z,24.80
2022-09-17T20:59:30.487Z,24.90
2022-09-17T21:01:58.940Z,24.90
2022-09-17T21:04:27.507Z,24.90
2022-09-17T21:06:55.943Z,25.00
2022-09-17T21:09:24.454Z,24.90
2022-09-17T21:11:52.890Z,24.90
2022-09-17T21:14:21.431Z,25.00
2022-09-17T21:16:49.826Z,24.90
2022-09-17T21:19:18.354Z,25.00
2022-09-17T21:21:46.827Z,24.90
2022-09-17T21:24:15.103Z,25.00
2022-09-17T21:26:43.565Z,25.00
2022-09-17T21:29:12.266Z,25.00
2022-09-17T21:31:40.756Z,25.10
2022-09-17T21:34:12.473Z,25.10
2022-09-17T21:36:42.685Z,25.10
2022-09-17T21:39:16.577Z,25.10
2022-09-17T21:41:46.228Z,25.10
2022-09-17T21:44:15.361Z,25.10
2022-09-17T21:46:44.240Z,25.20
2022-09-17T21:49:13.029Z,25.20
2022-09-17T21:51:43.612Z,25.20
2022-09-17T21:54:14.138Z,25.20
2022-09-17T21:56:42.863Z,25.30
2022-09-17T21:59:13.939Z,25.30
2022-09-17T22:01:47.590Z,25.20
2022-09-17T22:04:18.693Z,25.30
2022-09-17T22:06:48.349Z,25.30
2022-09-17T22:09:20.649Z,25.30
2022-09-17T22:11:49.923Z,25.40
2022-09-17T22:14:20.716Z,25.40
2022-09-17T22:16:52.992Z,25.30
2022-09-17T22:19:22.044Z,25.40
2022-09-17T22:21:52.495Z,25.40
2022-09-17T22:24:22.742Z,25.40
2022-09-17T22:26:57.241Z,25.40
2022-09-17T22:29:28.285Z,25.40
2022-09-17T22:31:56.552Z,25.40
2022-09-17T22:34:25.129Z,25.40
2022-09-17T22:36:53.660Z,25.40
2022-09-17T22:39:22.826Z,25.40
2022-09-17T22:41:51.574Z,25.40
2022-09-17T22:44:20.963Z,25.40
2022-09-17T22:46:51.899Z,25.40
2022-09-17T22:49:20.665Z,25.40
2022-09-17T22:51:49.215Z,25.40
2022-09-17T22:54:18.765Z,25.40
2022-09-17T22:56:48.564Z,25.40
2022-09-17T22:59:17.449Z,25.40
2022-09-17T23:01:45.695Z,25.40
2022-09-17T23:04:14.089Z,25.40
2022-09-17T23:06:42.564Z,25.40
2022-09-17T23:09:12.510Z,25.40
2022-09-17T23:11:41.481Z,25.40
2022-09-17T23:14:12.564Z,25.40
2022-09-17T23:16:46.543Z,25.40
2022-09-17T23:19:16.826Z,25.40
2022-09-17T23:21:45.751Z,25.50
2022-09-17T23:24:19.627Z,25.50
2022-09-17T23:26:48.650Z,25.50
2022-09-17T23:29:16.977Z,25.50
2022-09-17T23:31:45.439Z,25.50
2022-09-17T23:34:13.784Z,25.50
2022-09-17T23:36:42.062Z,25.50
2022-09-17T23:39:12.075Z,25.50
2022-09-17T23:41:42.563Z,25.50
2022-09-17T23:44:15.240Z,25.50
2022-09-17T23:46:45.489Z,25.50
2022-09-17T23:49:14.704Z,25.50
2022-09-17T23:51:43.112Z,25.50
2022-09-17T23:54:12.107Z,25.50
2022-09-17T23:56:40.276Z,25.50
2022-09-17T23:59:08.553Z,25.50
